createdAt,value
2022-08-18T00:00:13.743Z,-1.00
2022-08-18T00:03:00.803Z,-1.00
2022-08-18T00:05:36.431Z,-1.00
2022-08-18T00:08:10.624Z,-1.00
2022-08-18T00:10:43.442Z,-1.00
2022-08-18T00:13:15.027Z,-1.00
2022-08-18T00:15:49.137Z,-1.00
2022-08-18T00:18:21.177Z,-1.00
2022-08-18T00:20:53.016Z,-1.00
2022-08-18T00:23:24.663Z,-1.00
2022-08-18T00:25:55.069Z,-1.00
2022-08-18T00:28:26.737Z,-1.00
2022-08-18T00:30:58.380Z,-1.00
2022-08-18T00:33:30.073Z,-1.00
2022-08-18T00:35:59.930Z,-1.00
2022-08-18T00:38:32.231Z,-1.00
2022-08-18T00:41:03.702Z,-1.00
2022-08-18T00:43:40.501Z,-1.00
2022-08-18T00:46:13.975Z,-1.00
2022-08-18T00:48:48.581Z,-1.00
2022-08-18T00:51:22.448Z,-1.00
2022-08-18T00:53:56.296Z,-1.00
2022-08-18T00:56:31.723Z,-1.00
2022-08-18T00:59:06.720Z,-1.00
2022-08-18T01:01:38.261Z,-1.00
2022-08-18T01:04:11.255Z,-1.00
2022-08-18T01:06:44.051Z,-1.00
2022-08-18T01:09:17.952Z,-1.00
2022-08-18T01:11:51.648Z,-1.00
2022-08-18T01:14:23.429Z,-1.00
2022-08-18T01:17:08.764Z,-1.00
2022-08-18T01:19:58.035Z,-1.00
2022-08-18T01:22:31.723Z,-1.00
2022-08-18T01:25:32.217Z,-1.00
2022-08-18T01:28:03.954Z,-1.00
2022-08-18T01:30:45.777Z,-1.00
2022-08-18T01:33:17.532Z,-1.00
2022-08-18T01:35:50.226Z,-1.00
2022-08-18T01:38:22.988Z,-1.00
2022-08-18T01:41:23.961Z,-1.00
2022-08-18T01:43:47.129Z,-1.00
2022-08-18T01:46:22.265Z,-1.00
2022-08-18T01:48:53.877Z,-1.00
2022-08-18T01:51:38.112Z,-1.00
2022-08-18T01:54:13.931Z,-1.00
2022-08-18T01:56:45.584Z,-1.00
2022-08-18T01:59:17.464Z,-1.00
2022-08-18T02:01:53.366Z,-1.00
2022-08-18T02:04:37.001Z,-1.00
2022-08-18T02:07:10.580Z,-1.00
2022-08-18T02:09:42.596Z,-1.00
2022-08-18T02:12:15.201Z,-1.00
2022-08-18T02:14:47.149Z,-1.00
2022-08-18T02:17:18.682Z,-1.00
2022-08-18T02:19:48.607Z,-1.00
2022-08-18T02:22:21.890Z,-1.00
2022-08-18T02:24:53.536Z,-1.00
2022-08-18T02:27:25.557Z,-1.00
2022-08-18T02:29:56.985Z,-1.00
2022-08-18T02:32:27.047Z,-1.00
2022-08-18T02:35:01.107Z,-1.00
2022-08-18T02:37:32.753Z,-1.00
2022-08-18T02:40:04.565Z,-1.00
2022-08-18T02:42:36.444Z,-1.00
2022-08-18T02:45:09.666Z,-1.00
2022-08-18T02:47:41.429Z,-1.00
2022-08-18T02:50:14.703Z,-1.00
2022-08-18T02:52:46.353Z,-1.00
2022-08-18T02:55:17.853Z,-1.00
2022-08-18T02:57:49.243Z,-1.00
2022-08-18T03:00:21.025Z,-1.00
2022-08-18T03:02:53.709Z,-1.00
2022-08-18T03:05:25.219Z,-1.00
2022-08-18T03:07:56.812Z,-1.00
2022-08-18T03:10:33.504Z,-1.00
2022-08-18T03:13:06.641Z,-1.00
2022-08-18T03:15:38.189Z,-1.00
2022-08-18T03:18:09.789Z,-1.00
2022-08-18T03:20:39.618Z,-1.00
2022-08-18T03:23:13.363Z,-1.00
2022-08-18T03:25:50.364Z,-1.00
2022-08-18T03:28:22.904Z,-1.00
2022-08-18T03:30:54.426Z,-1.00
2022-08-18T03:33:26.175Z,-1.00
2022-08-18T03:35:56.058Z,-1.00
2022-08-18T03:38:27.628Z,-1.00
2022-08-18T03:40:59.200Z,-1.00
2022-08-18T03:43:51.182Z,-1.00
2022-08-18T03:46:23.610Z,-1.00
2022-08-18T03:48:55.691Z,-1.00
2022-08-18T03:51:29.132Z,-1.00
2022-08-18T03:54:01.953Z,-1.00
2022-08-18T03:56:35.445Z,-1.00
2022-08-18T03:59:08.139Z,-1.00
2022-08-18T04:01:40.927Z,-1.00
2022-08-18T04:04:13.506Z,-1.00
2022-08-18T04:06:46.685Z,-1.00
2022-08-18T04:09:18.466Z,-1.00
2022-08-18T04:11:48.362Z,-1.00
2022-08-18T04:14:25.146Z,-1.00
2022-08-18T04:16:56.704Z,-1.00
2022-08-18T04:19:27.993Z,-1.00
2022-08-18T04:22:00.459Z,-1.00
2022-08-18T04:24:33.561Z,-1.00
2022-08-18T04:27:08.341Z,-1.00
2022-08-18T04:29:40.028Z,-1.00
2022-08-18T04:32:11.829Z,-1.00
2022-08-18T04:34:43.628Z,-1.00
2022-08-18T04:37:15.640Z,-1.00
2022-08-18T04:39:45.884Z,-1.00
2022-08-18T04:42:17.683Z,-1.00
2022-08-18T04:44:47.784Z,-1.00
2022-08-18T04:47:20.578Z,-1.00
2022-08-18T04:49:52.174Z,-1.00
2022-08-18T04:52:41.792Z,-1.00
2022-08-18T04:55:14.198Z,-1.00
2022-08-18T04:57:45.813Z,-1.00
2022-08-18T05:00:16.024Z,-1.00
2022-08-18T05:02:47.832Z,-1.00
2022-08-18T05:05:20.059Z,-1.00
2022-08-18T05:07:51.683Z,-1.00
2022-08-18T05:10:23.450Z,-1.00
2022-08-18T05:12:56.055Z,-1.00
2022-08-18T05:15:27.655Z,-1.00
2022-08-18T05:17:57.718Z,-1.00
2022-08-18T05:20:30.378Z,-1.00
2022-08-18T05:23:01.862Z,-1.00
2022-08-18T05:28:23.036Z,-1.00
2022-08-18T05:30:54.853Z,-1.00
2022-08-18T05:33:27.843Z,-1.00
2022-08-18T05:36:11.153Z,-1.00
2022-08-18T05:38:48.457Z,-1.00
2022-08-18T05:41:23.280Z,-1.00
2022-08-18T05:43:54.852Z,-1.00
2022-08-18T05:46:32.776Z,-1.00
2022-08-18T05:49:04.534Z,-1.00
2022-08-18T05:51:38.270Z,-1.00
2022-08-18T05:54:27.541Z,-1.00
2022-08-18T05:57:03.097Z,-1.00
2022-08-18T05:59:35.733Z,-1.00
2022-08-18T06:02:12.464Z,-1.00
2022-08-18T06:04:47.895Z,-1.00
2022-08-18T06:07:25.363Z,-1.00
2022-08-18T06:09:57.370Z,-1.00
2022-08-18T06:12:37.310Z,-1.00
2022-08-18T06:15:14.748Z,-1.00
2022-08-18T06:18:02.923Z,-1.00
2022-08-18T06:20:38.650Z,-1.00
2022-08-18T06:23:20.610Z,-1.00
2022-08-18T06:26:03.033Z,-1.00
2022-08-18T06:28:41.733Z,-1.00
2022-08-18T06:31:16.160Z,-1.00
2022-08-18T06:33:54.864Z,-1.00
2022-08-18T06:36:35.719Z,-1.00
2022-08-18T06:39:09.822Z,-1.00
2022-08-18T06:41:44.100Z,-1.00
2022-08-18T06:44:21.423Z,-1.00
2022-08-18T06:46:54.709Z,-1.00
2022-08-18T06:49:40.138Z,-1.00
2022-08-18T06:52:27.122Z,-1.00
2022-08-18T06:55:00.701Z,-1.00
2022-08-18T06:57:34.867Z,-1.00
2022-08-18T07:00:11.539Z,-1.00
2022-08-18T07:02:54.478Z,-1.00
2022-08-18T07:05:28.084Z,-1.00
2022-08-18T07:08:18.612Z,-1.00
2022-08-18T07:10:51.564Z,-1.00
2022-08-18T07:13:26.657Z,-1.00
2022-08-18T07:16:16.045Z,-1.00
2022-08-18T07:18:51.707Z,-1.00
2022-08-18T07:21:31.298Z,-1.00
2022-08-18T07:24:23.643Z,-1.00
2022-08-18T07:27:03.758Z,-1.00
2022-08-18T07:29:36.786Z,-1.00
2022-08-18T07:32:21.046Z,-1.00
2022-08-18T07:34:55.310Z,-1.00
2022-08-18T07:37:29.170Z,-1.00
2022-08-18T07:40:04.946Z,-1.00
2022-08-18T07:43:00.477Z,-1.00
2022-08-18T07:45:34.903Z,-1.00
2022-08-18T07:48:36.614Z,-1.00
2022-08-18T07:51:08.913Z,-1.00
2022-08-18T07:53:54.812Z,-1.00
2022-08-18T07:56:34.140Z,-1.00
2022-08-18T07:59:08.605Z,-1.00
2022-08-18T08:01:42.965Z,-1.00
2022-08-18T08:04:25.493Z,-1.00
2022-08-18T08:07:23.858Z,-1.00
2022-08-18T08:10:03.316Z,-1.00
2022-08-18T08:12:39.597Z,-1.00
2022-08-18T08:15:18.010Z,-1.00
2022-08-18T08:18:00.609Z,-1.00
2022-08-18T08:20:34.277Z,-1.00
2022-08-18T08:23:17.999Z,-1.00
2022-08-18T08:26:01.309Z,-1.00
2022-08-18T08:28:41.777Z,-1.00
2022-08-18T08:31:36.137Z,-1.00
2022-08-18T08:34:11.251Z,-1.00
2022-08-18T08:36:44.979Z,-1.00
2022-08-18T08:39:20.947Z,-1.00
2022-08-18T08:42:07.322Z,-1.00
2022-08-18T08:44:59.096Z,-1.00
2022-08-18T08:47:33.415Z,-1.00
2022-08-18T08:50:06.668Z,-1.00
2022-08-18T08:52:42.555Z,-1.00
2022-08-18T08:55:16.474Z,-1.00
2022-08-18T08:57:49.386Z,-1.00
2022-08-18T09:03:30.687Z,-1.00
2022-08-18T09:06:10.670Z,-1.00
2022-08-18T09:08:54.990Z,-1.00
2022-08-18T09:25:49.749Z,51742.24
2022-08-18T09:28:25.078Z,51765.15
2022-08-18T09:34:25.112Z,51753.09
2022-08-18T09:37:05.324Z,51747.47
2022-08-18T09:39:58.065Z,51742.24
2022-08-18T09:42:50.089Z,51742.65
2022-08-18T09:45:43.481Z,51741.04
2022-08-18T09:48:30.672Z,51728.98
2022-08-18T09:51:36.284Z,51727.78
2022-08-18T09:57:21.063Z,51700.06
2022-08-18T10:00:24.338Z,51696.44
2022-08-18T10:03:31.124Z,51674.74
2022-08-18T10:06:16.202Z,51659.88
2022-08-18T10:09:14.558Z,51645.81
2022-08-18T10:12:10.330Z,51626.93
2022-08-18T10:15:27.203Z,51608.45
2022-08-18T10:18:26.461Z,51593.98
2022-08-18T10:21:05.594Z,51543.76
2022-08-18T10:27:24.003Z,51551.79
2022-08-18T10:29:57.851Z,51527.29
2022-08-18T10:35:59.650Z,51509.20
2022-08-18T10:38:54.029Z,51508.40
2022-08-18T10:41:30.817Z,51502.77
2022-08-18T10:44:20.906Z,51501.16
2022-08-18T10:46:54.906Z,51483.09
2022-08-18T10:49:28.465Z,51483.09
2022-08-18T10:52:20.987Z,51487.51
2022-08-18T10:55:21.950Z,51487.91
2022-08-18T10:58:24.096Z,51485.09
2022-08-18T11:01:07.858Z,51479.07
2022-08-18T11:03:51.603Z,51494.74
2022-08-18T11:06:27.202Z,51509.21
2022-08-18T11:09:00.935Z,51489.92
2022-08-18T11:11:40.698Z,51503.98
2022-08-18T11:14:52.645Z,51505.18
2022-08-18T11:17:31.777Z,51508.40
2022-08-18T11:20:04.496Z,51503.58
2022-08-18T11:22:36.746Z,51510.41
2022-08-18T11:25:28.087Z,51528.89
2022-08-18T11:28:00.966Z,51523.27
2022-08-18T11:30:35.171Z,51537.33
2022-08-18T11:33:07.362Z,51534.91
2022-08-18T11:35:49.154Z,51549.38
2022-08-18T11:38:23.213Z,51540.14
2022-08-18T11:41:13.122Z,51544.16
2022-08-18T11:43:46.682Z,51558.62
2022-08-18T11:46:31.612Z,51550.99
2022-08-18T11:49:15.831Z,51550.59
2022-08-18T11:52:02.285Z,51555.41
2022-08-18T11:54:50.627Z,51560.23
2022-08-18T11:57:46.516Z,51556.62
2022-08-18T12:00:45.144Z,51562.24
2022-08-18T12:03:30.991Z,51573.09
2022-08-18T12:06:19.059Z,51581.93
2022-08-18T12:08:59.077Z,51577.91
2022-08-18T12:11:32.440Z,51576.70
2022-08-18T12:14:30.123Z,51575.10
2022-08-18T12:16:59.752Z,51580.32
2022-08-18T12:19:34.512Z,51565.45
2022-08-18T12:22:17.436Z,51569.88
2022-08-18T12:24:49.465Z,51563.84
2022-08-18T12:27:22.725Z,51558.62
2022-08-18T12:29:55.535Z,51581.52
2022-08-18T12:32:46.468Z,51555.01
2022-08-18T12:35:22.559Z,51573.89
2022-08-18T12:40:46.474Z,51550.18
2022-08-18T12:43:17.980Z,51554.20
2022-08-18T12:45:51.911Z,51562.24
2022-08-18T12:48:25.358Z,51558.63
2022-08-18T12:50:59.913Z,51567.86
2022-08-18T12:53:57.857Z,51561.04
2022-08-18T12:56:24.883Z,51557.42
2022-08-18T12:58:56.819Z,51540.95
2022-08-18T13:01:29.769Z,51535.72
2022-08-18T13:04:12.552Z,51535.32
2022-08-18T13:07:01.333Z,51534.11
2022-08-18T13:09:47.909Z,51530.10
2022-08-18T13:12:27.499Z,51528.89
2022-08-18T13:14:59.427Z,51507.20
2022-08-18T13:17:33.451Z,51499.56
2022-08-18T13:20:09.611Z,51498.76
2022-08-18T13:22:41.858Z,51497.55
2022-08-18T13:25:32.147Z,51481.07
2022-08-18T13:28:09.843Z,51479.48
2022-08-18T13:30:42.197Z,51457.37
2022-08-18T13:33:33.856Z,51454.96
2022-08-18T13:36:06.722Z,51448.13
2022-08-18T13:38:38.408Z,51433.27
2022-08-18T13:41:10.346Z,51441.30
2022-08-18T13:43:47.960Z,51441.71
2022-08-18T13:46:29.796Z,51448.94
2022-08-18T13:49:03.161Z,51444.92
2022-08-18T13:51:35.049Z,51434.07
2022-08-18T13:54:26.970Z,51436.48
2022-08-18T13:56:58.962Z,51446.93
2022-08-18T13:59:33.243Z,51425.63
2022-08-18T14:02:08.730Z,51447.33
2022-08-18T14:04:40.581Z,51445.72
2022-08-18T14:07:19.098Z,51432.06
2022-08-18T14:09:59.300Z,51430.86
2022-08-18T14:12:36.885Z,51434.07
2022-08-18T14:15:13.161Z,51428.85
2022-08-18T14:17:45.979Z,51415.59
2022-08-18T14:20:37.651Z,51399.92
2022-08-18T14:23:32.316Z,51386.26
2022-08-18T14:26:22.866Z,51384.25
2022-08-18T14:28:58.733Z,51387.06
2022-08-18T14:31:30.477Z,51365.77
2022-08-18T14:34:06.282Z,51384.25
2022-08-18T14:36:38.046Z,51382.24
2022-08-18T14:39:10.826Z,51397.10
2022-08-18T14:41:49.564Z,51388.67
2022-08-18T14:44:32.294Z,51397.51
2022-08-18T14:47:04.232Z,51406.75
2022-08-18T14:49:42.933Z,51396.70
2022-08-18T14:52:19.443Z,51405.55
2022-08-18T14:54:51.361Z,51399.92
2022-08-18T14:57:23.169Z,51401.93
2022-08-18T14:59:57.498Z,51413.58
2022-08-18T15:02:29.040Z,51420.41
2022-08-18T15:05:00.612Z,51408.36
2022-08-18T15:07:32.941Z,51428.04
2022-08-18T15:10:15.646Z,51421.21
2022-08-18T15:12:51.237Z,51435.27
2022-08-18T15:15:23.026Z,51447.32
2022-08-18T15:17:56.829Z,51438.09
2022-08-18T15:20:29.999Z,51462.59
2022-08-18T15:23:22.836Z,51461.39
2022-08-18T15:26:00.036Z,51465.01
2022-08-18T15:28:32.372Z,51482.68
2022-08-18T15:31:49.515Z,51488.31
2022-08-18T15:33:57.623Z,51490.32
2022-08-18T15:36:29.488Z,51508.40
2022-08-18T15:39:01.407Z,51509.20
2022-08-18T15:41:35.614Z,51523.67
2022-08-18T15:44:17.352Z,51507.59
2022-08-18T15:46:53.014Z,51526.48
2022-08-18T15:49:25.257Z,51529.70
2022-08-18T15:51:58.978Z,51537.33
2022-08-18T15:54:30.601Z,51545.37
2022-08-18T15:57:03.195Z,51546.97
2022-08-18T15:59:40.034Z,51558.22
2022-08-18T16:02:16.938Z,51571.88
2022-08-18T16:04:51.024Z,51587.15
2022-08-18T16:07:27.028Z,51574.29
2022-08-18T16:10:13.533Z,51564.24
2022-08-18T16:12:45.950Z,51575.50
2022-08-18T16:15:19.716Z,51575.90
2022-08-18T16:17:56.103Z,51577.11
2022-08-18T16:20:29.671Z,51588.36
2022-08-18T16:23:01.292Z,51610.05
2022-08-18T16:25:33.011Z,51586.75
2022-08-18T16:28:05.663Z,51603.22
2022-08-18T16:30:37.238Z,51603.62
2022-08-18T16:33:09.777Z,51589.56
2022-08-18T16:35:42.958Z,51602.41
2022-08-18T16:38:17.065Z,51589.96
2022-08-18T16:40:48.634Z,51605.63
2022-08-18T16:43:18.446Z,51608.85
2022-08-18T16:45:50.147Z,51608.04
2022-08-18T16:48:23.122Z,51621.70
2022-08-18T16:50:54.567Z,51601.21
2022-08-18T16:53:24.503Z,51634.96
2022-08-18T16:55:56.293Z,51624.12
2022-08-18T16:58:45.543Z,51632.55
2022-08-18T17:01:49.095Z,51613.27
2022-08-18T17:04:22.774Z,51620.50
2022-08-18T17:06:54.538Z,51630.14
2022-08-18T17:09:26.840Z,51631.75
2022-08-18T17:11:58.355Z,51640.59
2022-08-18T17:14:31.659Z,51639.38
2022-08-18T17:17:03.139Z,51634.56
2022-08-18T17:19:37.880Z,51626.13
2022-08-18T17:22:09.608Z,51637.77
2022-08-18T17:24:46.353Z,51632.95
2022-08-18T17:27:27.697Z,51634.16
2022-08-18T17:30:09.505Z,51641.39
2022-08-18T17:32:49.757Z,51637.38
2022-08-18T17:35:28.694Z,51651.84
2022-08-18T17:38:02.716Z,51645.81
2022-08-18T17:40:35.695Z,51636.17
2022-08-18T17:43:07.149Z,51637.78
2022-08-18T17:45:38.810Z,51656.66
2022-08-18T17:48:12.975Z,51648.23
2022-08-18T17:51:04.095Z,51652.24
2022-08-18T17:53:36.475Z,51651.43
2022-08-18T17:56:11.746Z,51663.89
2022-08-18T17:58:46.486Z,51647.02
2022-08-18T18:01:18.624Z,51667.51
2022-08-18T18:03:50.662Z,51650.64
2022-08-18T18:06:31.796Z,51664.30
2022-08-18T18:09:05.252Z,51678.76
2022-08-18T18:11:39.521Z,51669.52
2022-08-18T18:14:28.637Z,51669.92
2022-08-18T18:17:11.776Z,51671.93
2022-08-18T18:19:46.307Z,51679.16
2022-08-18T18:22:24.350Z,51671.93
2022-08-18T18:24:57.618Z,51679.96
2022-08-18T18:27:35.766Z,51680.77
2022-08-18T18:30:11.464Z,51684.38
2022-08-18T18:32:59.114Z,51685.59
2022-08-18T18:35:34.215Z,51683.99
2022-08-18T18:38:08.472Z,51679.96
2022-08-18T18:40:41.543Z,51687.60
2022-08-18T18:43:23.731Z,51681.17
2022-08-18T18:46:30.229Z,51688.41
2022-08-18T18:49:15.203Z,51685.19
2022-08-18T18:51:51.012Z,51687.20
2022-08-18T18:54:33.316Z,51677.55
2022-08-18T18:57:12.110Z,51685.19
2022-08-18T19:02:34.448Z,51678.76
2022-08-18T19:05:13.854Z,51681.98
2022-08-18T19:07:53.987Z,51695.63
2022-08-18T19:10:30.642Z,51705.28
2022-08-18T19:13:05.107Z,51709.30
2022-08-18T19:15:38.541Z,51691.62
2022-08-18T19:18:28.806Z,51687.20
2022-08-18T19:22:02.096Z,51676.75
2022-08-18T19:23:58.870Z,51713.32
2022-08-18T19:26:32.724Z,51698.45
2022-08-18T19:29:13.067Z,51716.93
2022-08-18T19:31:50.778Z,51700.46
2022-08-18T19:34:30.161Z,51718.54
2022-08-18T19:37:08.004Z,51710.10
2022-08-18T19:39:44.505Z,51697.64
2022-08-18T19:42:19.278Z,51712.51
2022-08-18T19:45:15.036Z,51706.09
2022-08-18T19:47:49.735Z,51700.46
2022-08-18T19:50:25.882Z,51712.11
2022-08-18T19:53:16.972Z,51715.73
2022-08-18T19:56:02.845Z,51713.72
2022-08-18T19:59:15.427Z,51724.97
2022-08-18T20:01:50.618Z,51715.73
2022-08-18T20:04:28.774Z,51722.55
2022-08-18T20:07:21.446Z,51727.38
2022-08-18T20:10:04.168Z,51733.80
2022-08-18T20:12:56.893Z,51722.56
2022-08-18T20:15:31.483Z,51729.39
2022-08-18T20:18:22.982Z,51714.52
2022-08-18T20:21:48.770Z,51720.55
2022-08-18T20:24:38.898Z,51731.40
2022-08-18T20:27:35.439Z,51722.96
2022-08-18T20:30:33.674Z,51725.77
2022-08-18T20:33:16.853Z,51736.22
2022-08-18T20:36:03.552Z,51727.78
2022-08-18T20:38:37.209Z,51739.43
2022-08-18T20:41:31.682Z,51735.82
2022-08-18T20:44:10.022Z,51740.64
2022-08-18T20:46:44.671Z,51745.06
2022-08-18T20:49:23.269Z,51740.64
2022-08-18T20:52:04.266Z,51741.45
2022-08-18T20:54:57.758Z,51738.23
2022-08-18T20:57:35.559Z,51747.87
2022-08-18T21:00:16.015Z,51751.49
2022-08-18T21:02:57.944Z,51744.66
2022-08-18T21:05:33.048Z,51745.46
2022-08-18T21:08:06.521Z,51739.84
2022-08-18T21:10:38.048Z,51742.25
2022-08-18T21:13:09.624Z,51743.05
2022-08-18T21:15:41.282Z,51743.05
2022-08-18T21:18:20.654Z,51748.68
2022-08-18T21:20:52.860Z,51747.87
2022-08-18T21:23:29.743Z,51754.30
2022-08-18T21:26:06.406Z,51755.51
2022-08-18T21:28:39.603Z,51754.30
2022-08-18T21:31:42.838Z,51757.52
2022-08-18T21:34:19.105Z,51738.23
2022-08-18T21:36:56.650Z,51744.66
2022-08-18T21:39:28.197Z,51762.74
2022-08-18T21:42:01.708Z,51755.51
2022-08-18T21:44:44.855Z,51759.12
2022-08-18T21:47:21.933Z,51757.52
2022-08-18T21:50:09.798Z,51765.15
2022-08-18T21:52:51.853Z,51767.56
2022-08-18T21:55:29.470Z,51754.30
2022-08-18T21:58:09.260Z,51754.30
2022-08-18T22:00:41.606Z,51757.52
2022-08-18T22:03:22.564Z,51747.47
2022-08-18T22:06:03.729Z,51769.97
2022-08-18T22:08:49.882Z,51754.70
2022-08-18T22:12:01.197Z,51770.77
2022-08-18T22:14:55.270Z,51755.91
2022-08-18T22:17:45.406Z,51773.59
2022-08-18T22:20:43.565Z,51783.23
2022-08-18T22:23:51.428Z,51781.63
2022-08-18T22:26:27.057Z,51786.45
2022-08-18T22:29:04.980Z,51786.84
2022-08-18T22:31:39.160Z,51773.59
2022-08-18T22:34:12.413Z,51775.20
2022-08-18T22:36:45.977Z,51782.43
2022-08-18T22:39:20.238Z,51786.85
2022-08-18T22:41:51.867Z,51770.37
2022-08-18T22:44:21.628Z,51788.86
2022-08-18T22:46:53.450Z,51788.05
2022-08-18T22:49:25.276Z,51776.00
2022-08-18T22:51:58.100Z,51769.97
2022-08-18T22:54:29.686Z,51777.20
2022-08-18T22:57:01.570Z,51769.97
2022-08-18T22:59:34.431Z,51803.73
2022-08-18T23:02:06.106Z,51795.29
2022-08-18T23:04:37.743Z,51782.43
2022-08-18T23:07:09.496Z,51771.98
2022-08-18T23:09:41.782Z,51788.05
2022-08-18T23:12:15.008Z,51778.81
2022-08-18T23:14:49.793Z,51774.39
2022-08-18T23:17:22.749Z,51794.48
2022-08-18T23:19:54.522Z,51794.48
2022-08-18T23:22:26.922Z,51801.31
2022-08-18T23:24:58.889Z,51796.49
2022-08-18T23:27:41.373Z,51798.90
2022-08-18T23:30:14.215Z,51794.08
2022-08-18T23:32:45.901Z,51793.68
2022-08-18T23:35:17.867Z,51802.92
2022-08-18T23:37:49.559Z,51778.01
2022-08-18T23:40:19.647Z,51796.89
2022-08-18T23:42:51.912Z,51823.01
2022-08-18T23:45:23.991Z,51784.04
2022-08-18T23:47:57.626Z,51804.93
2022-08-18T23:50:29.799Z,51796.89
2022-08-18T23:53:01.780Z,51799.71
2022-08-18T23:55:34.603Z,51800.11
2022-08-18T23:58:06.475Z,51804.52
